sensor_id;sensor_type;location;lat;lon;timestamp;P1;durP1;ratioP1;P2;durP2;ratioP2
34102;SDS011;20381;54.498;18.206;2022-08-25T00:01:56;9.08;;;3.80;;
34102;SDS011;20381;54.498;18.206;2022-08-25T00:04:25;9.30;;;3.02;;
34102;SDS011;20381;54.498;18.206;2022-08-25T00:06:55;10.63;;;3.55;;
34102;SDS011;20381;54.498;18.206;2022-08-25T00:09:22;7.17;;;3.00;;
34102;SDS011;20381;54.498;18.206;2022-08-25T00:11:51;9.68;;;2.70;;
34102;SDS011;20381;54.498;18.206;2022-08-25T00:14:23;10.50;;;2.87;;
34102;SDS011;20381;54.498;18.206;2022-08-25T00:16:56;8.98;;;2.40;;
34102;SDS011;20381;54.498;18.206;2022-08-25T00:21:52;12.43;;;2.55;;
34102;SDS011;20381;54.498;18.206;2022-08-25T00:24:19;18.10;;;3.30;;
34102;SDS011;20381;54.498;18.206;2022-08-25T00:26:48;6.83;;;3.15;;
34102;SDS011;20381;54.498;18.206;2022-08-25T00:29:20;9.95;;;2.70;;
34102;SDS011;20381;54.498;18.206;2022-08-25T00:31:50;9.63;;;3.02;;
34102;SDS011;20381;54.498;18.206;2022-08-25T00:36:47;9.93;;;4.00;;
34102;SDS011;20381;54.498;18.206;2022-08-25T00:39:18;8.95;;;2.83;;
34102;SDS011;20381;54.498;18.206;2022-08-25T00:41:46;11.35;;;3.27;;
34102;SDS011;20381;54.498;18.206;2022-08-25T00:44:16;9.88;;;2.87;;
34102;SDS011;20381;54.498;18.206;2022-08-25T00:46:49;11.75;;;3.90;;
34102;SDS011;20381;54.498;18.206;2022-08-25T00:49:20;9.43;;;3.60;;
34102;SDS011;20381;54.498;18.206;2022-08-25T00:52:00;11.08;;;3.75;;
34102;SDS011;20381;54.498;18.206;2022-08-25T00:54:24;7.62;;;3.70;;
34102;SDS011;20381;54.498;18.206;2022-08-25T00:56:57;9.33;;;3.95;;
34102;SDS011;20381;54.498;18.206;2022-08-25T00:59:26;11.53;;;3.80;;
34102;SDS011;20381;54.498;18.206;2022-08-25T01:01:53;12.45;;;3.50;;
34102;SDS011;20381;54.498;18.206;2022-08-25T01:04:21;11.40;;;4.25;;
34102;SDS011;20381;54.498;18.206;2022-08-25T01:06:48;12.25;;;3.67;;
34102;SDS011;20381;54.498;18.206;2022-08-25T01:09:15;10.10;;;3.65;;
34102;SDS011;20381;54.498;18.206;2022-08-25T01:11:43;12.33;;;4.03;;
34102;SDS011;20381;54.498;18.206;2022-08-25T01:14:12;9.03;;;3.77;;
34102;SDS011;20381;54.498;18.206;2022-08-25T01:16:42;8.88;;;3.50;;
34102;SDS011;20381;54.498;18.206;2022-08-25T01:19:11;10.53;;;3.50;;
34102;SDS011;20381;54.498;18.206;2022-08-25T01:21:41;12.88;;;4.20;;
34102;SDS011;20381;54.498;18.206;2022-08-25T01:24:13;10.40;;;3.45;;
34102;SDS011;20381;54.498;18.206;2022-08-25T01:26:45;13.50;;;3.95;;
34102;SDS011;20381;54.498;18.206;2022-08-25T01:29:12;10.75;;;3.85;;
34102;SDS011;20381;54.498;18.206;2022-08-25T01:34:28;11.43;;;3.98;;
34102;SDS011;20381;54.498;18.206;2022-08-25T01:36:54;14.07;;;4.67;;
34102;SDS011;20381;54.498;18.206;2022-08-25T01:39:22;12.28;;;3.50;;
34102;SDS011;20381;54.498;18.206;2022-08-25T01:41:58;13.32;;;3.65;;
34102;SDS011;20381;54.498;18.206;2022-08-25T01:44:36;11.75;;;4.33;;
34102;SDS011;20381;54.498;18.206;2022-08-25T01:47:06;12.80;;;4.17;;
34102;SDS011;20381;54.498;18.206;2022-08-25T01:49:33;7.37;;;3.60;;
34102;SDS011;20381;54.498;18.206;2022-08-25T01:52:05;13.03;;;4.00;;
34102;SDS011;20381;54.498;18.206;2022-08-25T01:54:41;11.50;;;3.87;;
34102;SDS011;20381;54.498;18.206;2022-08-25T01:57:08;9.03;;;3.30;;
34102;SDS011;20381;54.498;18.206;2022-08-25T01:59:34;13.95;;;4.08;;
34102;SDS011;20381;54.498;18.206;2022-08-25T02:02:01;10.72;;;3.95;;
34102;SDS011;20381;54.498;18.206;2022-08-25T02:04:29;6.78;;;3.50;;
34102;SDS011;20381;54.498;18.206;2022-08-25T02:07:00;10.50;;;3.67;;
34102;SDS011;20381;54.498;18.206;2022-08-25T02:09:31;11.88;;;3.90;;
34102;SDS011;20381;54.498;18.206;2022-08-25T02:11:58;7.35;;;3.50;;
34102;SDS011;20381;54.498;18.206;2022-08-25T02:14:25;10.90;;;3.90;;
34102;SDS011;20381;54.498;18.206;2022-08-25T02:16:53;16.00;;;4.35;;
34102;SDS011;20381;54.498;18.206;2022-08-25T02:19:21;9.68;;;4.42;;
34102;SDS011;20381;54.498;18.206;2022-08-25T02:21:50;13.62;;;3.85;;
34102;SDS011;20381;54.498;18.206;2022-08-25T02:24:18;8.60;;;3.85;;
34102;SDS011;20381;54.498;18.206;2022-08-25T02:26:45;12.45;;;5.00;;
34102;SDS011;20381;54.498;18.206;2022-08-25T02:29:12;8.60;;;4.20;;
34102;SDS011;20381;54.498;18.206;2022-08-25T02:31:41;15.98;;;5.15;;
34102;SDS011;20381;54.498;18.206;2022-08-25T02:39:04;9.05;;;5.10;;
34102;SDS011;20381;54.498;18.206;2022-08-25T02:41:33;12.50;;;4.92;;
34102;SDS011;20381;54.498;18.206;2022-08-25T02:44:02;16.73;;;5.53;;
34102;SDS011;20381;54.498;18.206;2022-08-25T02:46:31;12.58;;;6.22;;
34102;SDS011;20381;54.498;18.206;2022-08-25T02:48:58;24.87;;;6.05;;
34102;SDS011;20381;54.498;18.206;2022-08-25T02:51:25;10.90;;;4.78;;
34102;SDS011;20381;54.498;18.206;2022-08-25T02:53:54;19.25;;;5.75;;
34102;SDS011;20381;54.498;18.206;2022-08-25T02:56:24;14.80;;;6.17;;
34102;SDS011;20381;54.498;18.206;2022-08-25T02:58:51;14.58;;;5.87;;
34102;SDS011;20381;54.498;18.206;2022-08-25T03:01:18;15.83;;;6.12;;
34102;SDS011;20381;54.498;18.206;2022-08-25T03:03:46;13.48;;;6.75;;
34102;SDS011;20381;54.498;18.206;2022-08-25T03:06:14;14.95;;;6.33;;
34102;SDS011;20381;54.498;18.206;2022-08-25T03:08:44;12.33;;;6.05;;
34102;SDS011;20381;54.498;18.206;2022-08-25T03:13:38;15.38;;;6.22;;
34102;SDS011;20381;54.498;18.206;2022-08-25T03:20:58;11.20;;;4.87;;
34102;SDS011;20381;54.498;18.206;2022-08-25T03:23:25;12.40;;;5.35;;
34102;SDS011;20381;54.498;18.206;2022-08-25T03:25:55;11.95;;;4.83;;
34102;SDS011;20381;54.498;18.206;2022-08-25T03:28:40;11.60;;;4.83;;
34102;SDS011;20381;54.498;18.206;2022-08-25T03:31:07;12.53;;;4.83;;
34102;SDS011;20381;54.498;18.206;2022-08-25T03:33:35;8.08;;;4.85;;
34102;SDS011;20381;54.498;18.206;2022-08-25T03:36:03;10.25;;;4.58;;
34102;SDS011;20381;54.498;18.206;2022-08-25T03:38:31;12.78;;;5.15;;
34102;SDS011;20381;54.498;18.206;2022-08-25T03:40:58;12.58;;;4.00;;
34102;SDS011;20381;54.498;18.206;2022-08-25T03:43:26;13.75;;;4.90;;
34102;SDS011;20381;54.498;18.206;2022-08-25T03:45:53;14.60;;;4.40;;
34102;SDS011;20381;54.498;18.206;2022-08-25T03:48:19;17.30;;;5.30;;
34102;SDS011;20381;54.498;18.206;2022-08-25T03:50:47;10.08;;;4.62;;
34102;SDS011;20381;54.498;18.206;2022-08-25T03:53:16;9.23;;;4.22;;
34102;SDS011;20381;54.498;18.206;2022-08-25T03:55:43;7.83;;;4.45;;
34102;SDS011;20381;54.498;18.206;2022-08-25T03:58:10;15.85;;;4.37;;
34102;SDS011;20381;54.498;18.206;2022-08-25T04:00:37;8.90;;;3.58;;
34102;SDS011;20381;54.498;18.206;2022-08-25T04:03:04;14.78;;;4.67;;
34102;SDS011;20381;54.498;18.206;2022-08-25T04:05:31;8.73;;;3.83;;
34102;SDS011;20381;54.498;18.206;2022-08-25T04:07:58;11.63;;;3.90;;
34102;SDS011;20381;54.498;18.206;2022-08-25T04:10:25;14.83;;;4.40;;
34102;SDS011;20381;54.498;18.206;2022-08-25T04:12:52;10.32;;;3.98;;
34102;SDS011;20381;54.498;18.206;2022-08-25T04:15:20;12.13;;;4.15;;
34102;SDS011;20381;54.498;18.206;2022-08-25T04:17:47;16.62;;;5.00;;
34102;SDS011;20381;54.498;18.206;2022-08-25T04:20:14;19.80;;;5.33;;
34102;SDS011;20381;54.498;18.206;2022-08-25T04:22:41;9.40;;;3.80;;
34102;SDS011;20381;54.498;18.206;2022-08-25T04:25:08;10.98;;;3.98;;
34102;SDS011;20381;54.498;18.206;2022-08-25T04:27:35;7.50;;;3.80;;
34102;SDS011;20381;54.498;18.206;2022-08-25T04:32:30;12.50;;;3.77;;
34102;SDS011;20381;54.498;18.206;2022-08-25T04:34:57;11.38;;;4.22;;
34102;SDS011;20381;54.498;18.206;2022-08-25T04:37:24;10.80;;;4.40;;
34102;SDS011;20381;54.498;18.206;2022-08-25T04:39:51;8.53;;;3.67;;
34102;SDS011;20381;54.498;18.206;2022-08-25T04:42:18;10.95;;;3.55;;
34102;SDS011;20381;54.498;18.206;2022-08-25T04:44:46;9.88;;;3.47;;
34102;SDS011;20381;54.498;18.206;2022-08-25T04:47:13;14.45;;;4.42;;
34102;SDS011;20381;54.498;18.206;2022-08-25T04:49:40;15.20;;;4.50;;
34102;SDS011;20381;54.498;18.206;2022-08-25T04:52:06;7.45;;;3.65;;
34102;SDS011;20381;54.498;18.206;2022-08-25T04:54:33;10.53;;;4.00;;
34102;SDS011;20381;54.498;18.206;2022-08-25T04:57:00;8.48;;;3.87;;
34102;SDS011;20381;54.498;18.206;2022-08-25T04:59:26;8.88;;;3.90;;
34102;SDS011;20381;54.498;18.206;2022-08-25T05:01:53;17.52;;;4.03;;
34102;SDS011;20381;54.498;18.206;2022-08-25T05:04:22;7.42;;;3.87;;
34102;SDS011;20381;54.498;18.206;2022-08-25T05:06:48;11.30;;;4.50;;
34102;SDS011;20381;54.498;18.206;2022-08-25T05:09:15;11.83;;;4.25;;
34102;SDS011;20381;54.498;18.206;2022-08-25T05:11:42;11.30;;;4.28;;
34102;SDS011;20381;54.498;18.206;2022-08-25T05:14:09;10.23;;;4.28;;
34102;SDS011;20381;54.498;18.206;2022-08-25T05:16:38;11.43;;;3.80;;
34102;SDS011;20381;54.498;18.206;2022-08-25T05:19:05;8.28;;;4.30;;
34102;SDS011;20381;54.498;18.206;2022-08-25T05:21:32;14.15;;;4.17;;
34102;SDS011;20381;54.498;18.206;2022-08-25T05:23:59;10.38;;;3.70;;
34102;SDS011;20381;54.498;18.206;2022-08-25T05:26:28;11.00;;;3.98;;
34102;SDS011;20381;54.498;18.206;2022-08-25T05:28:57;14.38;;;4.47;;
34102;SDS011;20381;54.498;18.206;2022-08-25T05:31:25;8.58;;;3.65;;
34102;SDS011;20381;54.498;18.206;2022-08-25T05:33:53;8.48;;;4.35;;
34102;SDS011;20381;54.498;18.206;2022-08-25T05:36:20;10.13;;;3.65;;
34102;SDS011;20381;54.498;18.206;2022-08-25T05:38:49;7.33;;;3.62;;
34102;SDS011;20381;54.498;18.206;2022-08-25T05:41:18;10.00;;;3.20;;
34102;SDS011;20381;54.498;18.206;2022-08-25T05:43:47;12.65;;;4.00;;
34102;SDS011;20381;54.498;18.206;2022-08-25T05:46:15;12.45;;;4.33;;
34102;SDS011;20381;54.498;18.206;2022-08-25T05:48:44;11.60;;;4.10;;
34102;SDS011;20381;54.498;18.206;2022-08-25T05:53:40;15.43;;;3.90;;
34102;SDS011;20381;54.498;18.206;2022-08-25T05:56:10;10.13;;;4.37;;
34102;SDS011;20381;54.498;18.206;2022-08-25T05:58:39;9.63;;;3.80;;
34102;SDS011;20381;54.498;18.206;2022-08-25T06:01:08;13.93;;;4.20;;
34102;SDS011;20381;54.498;18.206;2022-08-25T06:03:53;12.07;;;3.40;;
34102;SDS011;20381;54.498;18.206;2022-08-25T06:06:20;11.15;;;4.12;;
34102;SDS011;20381;54.498;18.206;2022-08-25T06:08:48;15.98;;;4.60;;
34102;SDS011;20381;54.498;18.206;2022-08-25T06:11:16;12.18;;;3.80;;
34102;SDS011;20381;54.498;18.206;2022-08-25T06:16:10;11.22;;;4.12;;
34102;SDS011;20381;54.498;18.206;2022-08-25T06:18:36;16.12;;;4.40;;
34102;SDS011;20381;54.498;18.206;2022-08-25T06:21:12;13.62;;;3.62;;
34102;SDS011;20381;54.498;18.206;2022-08-25T06:23:39;8.08;;;3.60;;
34102;SDS011;20381;54.498;18.206;2022-08-25T06:26:11;13.08;;;3.80;;
34102;SDS011;20381;54.498;18.206;2022-08-25T06:28:36;11.60;;;3.80;;
34102;SDS011;20381;54.498;18.206;2022-08-25T06:31:03;23.62;;;4.60;;
34102;SDS011;20381;54.498;18.206;2022-08-25T06:33:31;11.65;;;3.72;;
34102;SDS011;20381;54.498;18.206;2022-08-25T06:35:59;11.00;;;4.03;;
34102;SDS011;20381;54.498;18.206;2022-08-25T06:38:26;10.20;;;4.03;;
34102;SDS011;20381;54.498;18.206;2022-08-25T06:40:53;14.93;;;3.80;;
34102;SDS011;20381;54.498;18.206;2022-08-25T06:43:22;12.33;;;3.60;;
34102;SDS011;20381;54.498;18.206;2022-08-25T06:45:49;9.45;;;3.27;;
34102;SDS011;20381;54.498;18.206;2022-08-25T06:48:16;10.05;;;3.55;;
34102;SDS011;20381;54.498;18.206;2022-08-25T06:50:42;12.60;;;3.33;;
34102;SDS011;20381;54.498;18.206;2022-08-25T06:53:09;9.80;;;3.47;;
34102;SDS011;20381;54.498;18.206;2022-08-25T06:55:37;11.28;;;3.98;;
34102;SDS011;20381;54.498;18.206;2022-08-25T06:58:04;11.08;;;3.98;;
34102;SDS011;20381;54.498;18.206;2022-08-25T07:00:31;20.62;;;5.12;;
34102;SDS011;20381;54.498;18.206;2022-08-25T07:02:59;12.63;;;4.40;;
34102;SDS011;20381;54.498;18.206;2022-08-25T07:05:26;14.68;;;4.03;;
34102;SDS011;20381;54.498;18.206;2022-08-25T07:07:54;10.55;;;3.85;;
34102;SDS011;20381;54.498;18.206;2022-08-25T07:10:22;13.00;;;3.90;;
34102;SDS011;20381;54.498;18.206;2022-08-25T07:12:49;13.88;;;3.98;;
34102;SDS011;20381;54.498;18.206;2022-08-25T07:15:16;12.00;;;4.10;;
34102;SDS011;20381;54.498;18.206;2022-08-25T07:17:45;13.48;;;3.98;;
34102;SDS011;20381;54.498;18.206;2022-08-25T07:20:12;13.22;;;4.25;;
34102;SDS011;20381;54.498;18.206;2022-08-25T07:22:39;11.00;;;3.90;;
34102;SDS011;20381;54.498;18.206;2022-08-25T07:25:07;13.28;;;4.03;;
34102;SDS011;20381;54.498;18.206;2022-08-25T07:27:36;13.75;;;4.30;;
34102;SDS011;20381;54.498;18.206;2022-08-25T07:30:05;12.82;;;4.33;;
34102;SDS011;20381;54.498;18.206;2022-08-25T07:32:33;10.75;;;3.85;;
34102;SDS011;20381;54.498;18.206;2022-08-25T07:35:00;13.65;;;4.25;;
34102;SDS011;20381;54.498;18.206;2022-08-25T07:37:49;15.45;;;4.30;;
34102;SDS011;20381;54.498;18.206;2022-08-25T07:40:17;15.63;;;4.62;;
34102;SDS011;20381;54.498;18.206;2022-08-25T07:42:53;15.63;;;4.25;;
34102;SDS011;20381;54.498;18.206;2022-08-25T07:45:25;14.10;;;4.42;;
34102;SDS011;20381;54.498;18.206;2022-08-25T07:47:58;12.03;;;4.53;;
34102;SDS011;20381;54.498;18.206;2022-08-25T07:50:30;18.23;;;4.40;;
34102;SDS011;20381;54.498;18.206;2022-08-25T07:52:57;11.28;;;4.08;;
34102;SDS011;20381;54.498;18.206;2022-08-25T07:55:25;9.58;;;3.62;;
34102;SDS011;20381;54.498;18.206;2022-08-25T07:57:54;14.98;;;4.33;;
34102;SDS011;20381;54.498;18.206;2022-08-25T08:00:21;12.58;;;3.90;;
34102;SDS011;20381;54.498;18.206;2022-08-25T08:02:50;12.37;;;3.80;;
34102;SDS011;20381;54.498;18.206;2022-08-25T08:05:17;12.70;;;4.37;;
34102;SDS011;20381;54.498;18.206;2022-08-25T08:07:44;14.05;;;4.17;;
34102;SDS011;20381;54.498;18.206;2022-08-25T08:10:12;18.90;;;4.60;;
34102;SDS011;20381;54.498;18.206;2022-08-25T08:12:40;11.97;;;4.35;;
34102;SDS011;20381;54.498;18.206;2022-08-25T08:17:34;17.70;;;3.90;;
34102;SDS011;20381;54.498;18.206;2022-08-25T08:20:01;15.53;;;4.10;;
34102;SDS011;20381;54.498;18.206;2022-08-25T08:22:31;17.60;;;4.65;;
34102;SDS011;20381;54.498;18.206;2022-08-25T08:24:58;38.23;;;4.78;;
34102;SDS011;20381;54.498;18.206;2022-08-25T08:27:26;15.43;;;4.85;;
34102;SDS011;20381;54.498;18.206;2022-08-25T08:29:53;17.90;;;5.12;;
34102;SDS011;20381;54.498;18.206;2022-08-25T08:32:20;15.48;;;4.65;;
34102;SDS011;20381;54.498;18.206;2022-08-25T08:34:47;18.62;;;6.25;;
34102;SDS011;20381;54.498;18.206;2022-08-25T08:37:14;19.80;;;6.17;;
34102;SDS011;20381;54.498;18.206;2022-08-25T08:39:40;19.07;;;5.40;;
34102;SDS011;20381;54.498;18.206;2022-08-25T08:45:15;19.48;;;5.55;;
34102;SDS011;20381;54.498;18.206;2022-08-25T08:53:39;14.93;;;3.85;;
34102;SDS011;20381;54.498;18.206;2022-08-25T08:56:18;14.28;;;4.97;;
34102;SDS011;20381;54.498;18.206;2022-08-25T09:01:36;16.60;;;5.03;;
34102;SDS011;20381;54.498;18.206;2022-08-25T09:04:19;13.58;;;4.85;;
34102;SDS011;20381;54.498;18.206;2022-08-25T09:06:49;14.30;;;4.55;;
34102;SDS011;20381;54.498;18.206;2022-08-25T09:18:33;20.02;;;5.10;;
34102;SDS011;20381;54.498;18.206;2022-08-25T09:21:17;12.55;;;5.25;;
34102;SDS011;20381;54.498;18.206;2022-08-25T09:23:58;13.40;;;5.78;;
34102;SDS011;20381;54.498;18.206;2022-08-25T09:26:28;11.95;;;5.33;;
34102;SDS011;20381;54.498;18.206;2022-08-25T09:29:07;14.38;;;6.30;;
34102;SDS011;20381;54.498;18.206;2022-08-25T09:31:40;19.30;;;6.50;;
34102;SDS011;20381;54.498;18.206;2022-08-25T09:34:11;13.83;;;5.75;;
34102;SDS011;20381;54.498;18.206;2022-08-25T09:36:44;16.20;;;5.75;;
34102;SDS011;20381;54.498;18.206;2022-08-25T09:39:15;12.90;;;6.30;;
34102;SDS011;20381;54.498;18.206;2022-08-25T09:41:49;17.32;;;6.05;;
34102;SDS011;20381;54.498;18.206;2022-08-25T09:44:33;20.00;;;6.95;;
34102;SDS011;20381;54.498;18.206;2022-08-25T09:47:18;14.15;;;5.67;;
34102;SDS011;20381;54.498;18.206;2022-08-25T10:00:17;15.43;;;6.28;;
34102;SDS011;20381;54.498;18.206;2022-08-25T10:03:04;15.83;;;6.62;;
34102;SDS011;20381;54.498;18.206;2022-08-25T10:05:49;15.68;;;6.45;;
34102;SDS011;20381;54.498;18.206;2022-08-25T10:08:35;12.60;;;5.30;;
34102;SDS011;20381;54.498;18.206;2022-08-25T10:11:12;14.70;;;6.40;;
34102;SDS011;20381;54.498;18.206;2022-08-25T10:14:03;14.93;;;6.00;;
34102;SDS011;20381;54.498;18.206;2022-08-25T10:16:33;20.20;;;6.78;;
34102;SDS011;20381;54.498;18.206;2022-08-25T10:19:10;14.23;;;5.62;;
34102;SDS011;20381;54.498;18.206;2022-08-25T10:21:44;18.62;;;6.15;;
34102;SDS011;20381;54.498;18.206;2022-08-25T10:24:11;21.75;;;6.33;;
34102;SDS011;20381;54.498;18.206;2022-08-25T10:35:30;16.80;;;6.08;;
34102;SDS011;20381;54.498;18.206;2022-08-25T10:41:13;13.43;;;6.08;;
34102;SDS011;20381;54.498;18.206;2022-08-25T10:43:57;16.15;;;6.10;;
34102;SDS011;20381;54.498;18.206;2022-08-25T10:50:28;17.85;;;6.55;;
34102;SDS011;20381;54.498;18.206;2022-08-25T10:58:50;20.40;;;8.05;;
34102;SDS011;20381;54.498;18.206;2022-08-25T11:09:52;18.12;;;7.45;;
34102;SDS011;20381;54.498;18.206;2022-08-25T11:12:37;27.20;;;8.05;;
34102;SDS011;20381;54.498;18.206;2022-08-25T11:15:14;20.68;;;8.80;;
34102;SDS011;20381;54.498;18.206;2022-08-25T11:17:48;20.77;;;7.65;;
34102;SDS011;20381;54.498;18.206;2022-08-25T11:20:30;21.25;;;8.70;;
34102;SDS011;20381;54.498;18.206;2022-08-25T11:25:44;21.48;;;7.85;;
34102;SDS011;20381;54.498;18.206;2022-08-25T11:28:31;35.78;;;8.85;;
34102;SDS011;20381;54.498;18.206;2022-08-25T11:31:18;29.30;;;9.00;;
34102;SDS011;20381;54.498;18.206;2022-08-25T11:33:48;25.37;;;8.60;;
34102;SDS011;20381;54.498;18.206;2022-08-25T11:48:19;21.73;;;7.58;;
34102;SDS011;20381;54.498;18.206;2022-08-25T11:52:57;25.25;;;8.18;;
34102;SDS011;20381;54.498;18.206;2022-08-25T12:04:12;19.30;;;7.70;;
34102;SDS011;20381;54.498;18.206;2022-08-25T12:10:24;31.65;;;8.83;;
34102;SDS011;20381;54.498;18.206;2022-08-25T12:12:38;32.35;;;9.58;;
34102;SDS011;20381;54.498;18.206;2022-08-25T12:31:57;27.73;;;8.50;;
34102;SDS011;20381;54.498;18.206;2022-08-25T12:37:17;22.00;;;7.97;;
34102;SDS011;20381;54.498;18.206;2022-08-25T12:42:36;26.10;;;8.43;;
34102;SDS011;20381;54.498;18.206;2022-08-25T12:45:10;24.05;;;7.08;;
34102;SDS011;20381;54.498;18.206;2022-08-25T12:47:49;28.07;;;7.62;;
34102;SDS011;20381;54.498;18.206;2022-08-25T12:53:15;23.87;;;8.25;;
34102;SDS011;20381;54.498;18.206;2022-08-25T12:56:31;30.92;;;8.58;;
34102;SDS011;20381;54.498;18.206;2022-08-25T13:01:57;29.60;;;8.55;;
34102;SDS011;20381;54.498;18.206;2022-08-25T13:09:07;26.35;;;8.20;;
34102;SDS011;20381;54.498;18.206;2022-08-25T13:14:41;25.15;;;7.20;;
34102;SDS011;20381;54.498;18.206;2022-08-25T13:17:03;38.80;;;8.18;;
34102;SDS011;20381;54.498;18.206;2022-08-25T13:19:31;20.65;;;7.37;;
34102;SDS011;20381;54.498;18.206;2022-08-25T13:21:59;24.57;;;7.53;;
34102;SDS011;20381;54.498;18.206;2022-08-25T13:24:35;25.55;;;8.10;;
34102;SDS011;20381;54.498;18.206;2022-08-25T13:27:05;26.68;;;7.92;;
34102;SDS011;20381;54.498;18.206;2022-08-25T13:29:36;21.93;;;6.85;;
34102;SDS011;20381;54.498;18.206;2022-08-25T13:32:33;30.37;;;7.25;;
34102;SDS011;20381;54.498;18.206;2022-08-25T13:35:13;23.15;;;7.22;;
34102;SDS011;20381;54.498;18.206;2022-08-25T13:37:43;23.77;;;7.72;;
34102;SDS011;20381;54.498;18.206;2022-08-25T13:43:00;25.05;;;7.75;;
34102;SDS011;20381;54.498;18.206;2022-08-25T13:45:36;31.75;;;6.65;;
34102;SDS011;20381;54.498;18.206;2022-08-25T13:48:09;25.50;;;7.03;;
34102;SDS011;20381;54.498;18.206;2022-08-25T13:50:38;16.65;;;5.92;;
34102;SDS011;20381;54.498;18.206;2022-08-25T13:53:23;22.50;;;7.00;;
34102;SDS011;20381;54.498;18.206;2022-08-25T13:55:52;26.37;;;6.97;;
34102;SDS011;20381;54.498;18.206;2022-08-25T13:58:31;28.15;;;7.42;;
34102;SDS011;20381;54.498;18.206;2022-08-25T14:03:41;38.88;;;7.60;;
34102;SDS011;20381;54.498;18.206;2022-08-25T14:11:33;24.82;;;6.87;;
34102;SDS011;20381;54.498;18.206;2022-08-25T14:14:28;31.30;;;7.90;;
34102;SDS011;20381;54.498;18.206;2022-08-25T14:16:52;22.37;;;6.40;;
34102;SDS011;20381;54.498;18.206;2022-08-25T14:19:29;20.88;;;7.00;;
34102;SDS011;20381;54.498;18.206;2022-08-25T14:21:56;25.50;;;7.50;;
34102;SDS011;20381;54.498;18.206;2022-08-25T14:24:30;21.57;;;7.40;;
34102;SDS011;20381;54.498;18.206;2022-08-25T14:26:59;33.33;;;8.18;;
34102;SDS011;20381;54.498;18.206;2022-08-25T14:29:26;22.20;;;7.60;;
34102;SDS011;20381;54.498;18.206;2022-08-25T14:31:54;28.05;;;9.28;;
34102;SDS011;20381;54.498;18.206;2022-08-25T14:34:22;23.65;;;8.30;;
34102;SDS011;20381;54.498;18.206;2022-08-25T14:36:52;30.27;;;6.90;;
34102;SDS011;20381;54.498;18.206;2022-08-25T14:39:19;21.40;;;7.25;;
34102;SDS011;20381;54.498;18.206;2022-08-25T14:41:46;24.43;;;7.53;;
34102;SDS011;20381;54.498;18.206;2022-08-25T14:44:15;24.23;;;8.28;;
34102;SDS011;20381;54.498;18.206;2022-08-25T14:49:21;22.00;;;8.08;;
34102;SDS011;20381;54.498;18.206;2022-08-25T14:51:53;20.68;;;7.60;;
34102;SDS011;20381;54.498;18.206;2022-08-25T14:54:22;16.93;;;7.03;;
34102;SDS011;20381;54.498;18.206;2022-08-25T14:56:51;23.52;;;8.30;;
34102;SDS011;20381;54.498;18.206;2022-08-25T15:01:45;26.37;;;7.55;;
34102;SDS011;20381;54.498;18.206;2022-08-25T15:04:19;28.38;;;9.48;;
34102;SDS011;20381;54.498;18.206;2022-08-25T15:06:53;27.93;;;8.15;;
34102;SDS011;20381;54.498;18.206;2022-08-25T15:09:22;25.72;;;9.00;;
34102;SDS011;20381;54.498;18.206;2022-08-25T15:11:52;27.75;;;8.85;;
34102;SDS011;20381;54.498;18.206;2022-08-25T15:14:21;23.80;;;9.10;;
34102;SDS011;20381;54.498;18.206;2022-08-25T15:16:57;18.75;;;7.12;;
34102;SDS011;20381;54.498;18.206;2022-08-25T15:19:26;25.08;;;9.43;;
34102;SDS011;20381;54.498;18.206;2022-08-25T15:21:53;29.70;;;9.15;;
34102;SDS011;20381;54.498;18.206;2022-08-25T15:24:21;27.82;;;8.25;;
34102;SDS011;20381;54.498;18.206;2022-08-25T15:26:54;19.40;;;8.30;;
34102;SDS011;20381;54.498;18.206;2022-08-25T15:29:25;24.02;;;8.70;;
34102;SDS011;20381;54.498;18.206;2022-08-25T15:31:55;24.47;;;8.75;;
34102;SDS011;20381;54.498;18.206;2022-08-25T15:34:23;21.27;;;8.40;;
34102;SDS011;20381;54.498;18.206;2022-08-25T15:39:16;28.73;;;8.88;;
34102;SDS011;20381;54.498;18.206;2022-08-25T15:41:44;27.90;;;9.98;;
34102;SDS011;20381;54.498;18.206;2022-08-25T15:44:13;25.50;;;10.03;;
34102;SDS011;20381;54.498;18.206;2022-08-25T15:46:40;21.82;;;9.28;;
34102;SDS011;20381;54.498;18.206;2022-08-25T15:49:07;33.80;;;10.23;;
34102;SDS011;20381;54.498;18.206;2022-08-25T15:51:34;27.30;;;10.68;;
34102;SDS011;20381;54.498;18.206;2022-08-25T15:54:01;23.47;;;10.03;;
34102;SDS011;20381;54.498;18.206;2022-08-25T15:56:28;22.13;;;9.93;;
34102;SDS011;20381;54.498;18.206;2022-08-25T16:01:23;27.22;;;10.35;;
34102;SDS011;20381;54.498;18.206;2022-08-25T16:03:53;26.00;;;10.98;;
34102;SDS011;20381;54.498;18.206;2022-08-25T16:06:19;31.42;;;10.55;;
34102;SDS011;20381;54.498;18.206;2022-08-25T16:08:46;27.60;;;10.93;;
34102;SDS011;20381;54.498;18.206;2022-08-25T16:11:17;21.35;;;10.40;;
34102;SDS011;20381;54.498;18.206;2022-08-25T16:13:58;22.05;;;10.88;;
34102;SDS011;20381;54.498;18.206;2022-08-25T16:16:25;28.45;;;11.85;;
34102;SDS011;20381;54.498;18.206;2022-08-25T16:18:56;23.75;;;11.50;;
34102;SDS011;20381;54.498;18.206;2022-08-25T16:21:25;24.55;;;11.88;;
34102;SDS011;20381;54.498;18.206;2022-08-25T16:23:56;22.40;;;11.12;;
34102;SDS011;20381;54.498;18.206;2022-08-25T16:26:25;33.13;;;11.20;;
34102;SDS011;20381;54.498;18.206;2022-08-25T16:28:52;28.32;;;12.28;;
34102;SDS011;20381;54.498;18.206;2022-08-25T16:31:19;26.37;;;11.95;;
34102;SDS011;20381;54.498;18.206;2022-08-25T16:33:46;29.40;;;12.30;;
34102;SDS011;20381;54.498;18.206;2022-08-25T16:38:44;29.45;;;12.07;;
34102;SDS011;20381;54.498;18.206;2022-08-25T16:41:13;28.02;;;11.93;;
34102;SDS011;20381;54.498;18.206;2022-08-25T16:43:46;25.68;;;11.50;;
34102;SDS011;20381;54.498;18.206;2022-08-25T16:46:15;24.85;;;12.55;;
34102;SDS011;20381;54.498;18.206;2022-08-25T16:48:43;25.52;;;13.03;;
34102;SDS011;20381;54.498;18.206;2022-08-25T16:51:11;30.52;;;12.50;;
34102;SDS011;20381;54.498;18.206;2022-08-25T16:53:41;25.12;;;12.40;;
34102;SDS011;20381;54.498;18.206;2022-08-25T16:56:27;25.37;;;12.05;;
34102;SDS011;20381;54.498;18.206;2022-08-25T16:58:58;24.40;;;12.30;;
34102;SDS011;20381;54.498;18.206;2022-08-25T17:01:27;25.52;;;11.53;;
34102;SDS011;20381;54.498;18.206;2022-08-25T17:03:56;28.67;;;12.37;;
34102;SDS011;20381;54.498;18.206;2022-08-25T17:06:24;28.20;;;12.07;;
34102;SDS011;20381;54.498;18.206;2022-08-25T17:08:52;26.73;;;11.48;;
34102;SDS011;20381;54.498;18.206;2022-08-25T17:13:52;30.25;;;11.43;;
34102;SDS011;20381;54.498;18.206;2022-08-25T17:16:23;32.00;;;12.35;;
34102;SDS011;20381;54.498;18.206;2022-08-25T17:18:55;33.60;;;11.53;;
34102;SDS011;20381;54.498;18.206;2022-08-25T17:21:24;26.82;;;11.70;;
34102;SDS011;20381;54.498;18.206;2022-08-25T17:23:53;26.17;;;11.12;;
34102;SDS011;20381;54.498;18.206;2022-08-25T17:26:22;34.20;;;12.00;;
34102;SDS011;20381;54.498;18.206;2022-08-25T17:28:50;25.65;;;11.80;;
34102;SDS011;20381;54.498;18.206;2022-08-25T17:31:18;23.70;;;10.20;;
34102;SDS011;20381;54.498;18.206;2022-08-25T17:33:45;31.73;;;11.78;;
34102;SDS011;20381;54.498;18.206;2022-08-25T17:36:13;25.68;;;10.75;;
34102;SDS011;20381;54.498;18.206;2022-08-25T17:38:41;30.68;;;10.32;;
34102;SDS011;20381;54.498;18.206;2022-08-25T17:41:08;24.95;;;10.70;;